Terminal Aerodrome Forecast
Issued by NWS

Home | Current Version | Previous Version | Text Only | Print | Product List | Glossary On
Versions: 1 2 3 4 5 6 7 8 9 10 11 12 13 14 15 16 17 18 19 20 21 22 23
000
FTUS42 KTBW 020500 RRA
TAFLAL
TAF
KLAL 020542Z 0206/0306 VRB03KT P6SM FEW005 SCT250
     FM021800 01005KT P6SM VCTS SCT035CB BKN050
     FM030300 08005KT P6SM FEW035 SCT250
      AMD NOT SKED TIL 021200=

USA.gov is the U.S. government's official web portal to all federal, state and local government web resources and services.